sensor_id;sensor_type;location;lat;lon;timestamp;temperature;humidity
68257;DHT22;55069;51.568;4.656;2022-08-03T00:00:00;19.79;78.49
68257;DHT22;55069;51.568;4.656;2022-08-03T00:02:26;19.74;78.68
68257;DHT22;55069;51.568;4.656;2022-08-03T00:04:51;19.74;78.74
68257;DHT22;55069;51.568;4.656;2022-08-03T00:07:17;19.71;79.82
68257;DHT22;55069;51.568;4.656;2022-08-03T00:09:43;19.61;80.04
68257;DHT22;55069;51.568;4.656;2022-08-03T00:12:08;19.58;79.37
68257;DHT22;55069;51.568;4.656;2022-08-03T00:14:34;19.63;79.34
68257;DHT22;55069;51.568;4.656;2022-08-03T00:17:00;19.66;80.66
68257;DHT22;55069;51.568;4.656;2022-08-03T00:19:25;19.61;79.15
68257;DHT22;55069;51.568;4.656;2022-08-03T00:21:52;19.64;80.31
68257;DHT22;55069;51.568;4.656;2022-08-03T00:24:17;19.57;80.59
68257;DHT22;55069;51.568;4.656;2022-08-03T00:26:43;19.51;80.31
68257;DHT22;55069;51.568;4.656;2022-08-03T00:29:08;19.54;80.80
68257;DHT22;55069;51.568;4.656;2022-08-03T00:31:34;19.51;80.63
68257;DHT22;55069;51.568;4.656;2022-08-03T00:34:00;19.53;80.41
68257;DHT22;55069;51.568;4.656;2022-08-03T00:36:26;19.56;81.30
68257;DHT22;55069;51.568;4.656;2022-08-03T00:38:51;19.56;80.96
68257;DHT22;55069;51.568;4.656;2022-08-03T00:41:17;19.53;80.01
68257;DHT22;55069;51.568;4.656;2022-08-03T00:43:42;19.57;80.26
68257;DHT22;55069;51.568;4.656;2022-08-03T00:46:09;19.57;80.14
68257;DHT22;55069;51.568;4.656;2022-08-03T00:48:35;19.53;81.04
68257;DHT22;55069;51.568;4.656;2022-08-03T00:51:01;19.54;81.08
68257;DHT22;55069;51.568;4.656;2022-08-03T00:53:26;19.53;80.85
68257;DHT22;55069;51.568;4.656;2022-08-03T00:55:52;19.53;80.81
68257;DHT22;55069;51.568;4.656;2022-08-03T00:58:18;19.56;81.02
68257;DHT22;55069;51.568;4.656;2022-08-03T01:00:44;19.54;80.85
68257;DHT22;55069;51.568;4.656;2022-08-03T01:03:10;19.51;81.17
68257;DHT22;55069;51.568;4.656;2022-08-03T01:06:33;19.47;81.24
68257;DHT22;55069;51.568;4.656;2022-08-03T01:16:29;19.41;81.11
68257;DHT22;55069;51.568;4.656;2022-08-03T01:22:09;19.43;81.22
68257;DHT22;55069;51.568;4.656;2022-08-03T01:25:14;19.46;80.53
68257;DHT22;55069;51.568;4.656;2022-08-03T01:30:26;19.37;80.34
68257;DHT22;55069;51.568;4.656;2022-08-03T01:33:12;19.31;81.11
68257;DHT22;55069;51.568;4.656;2022-08-03T01:36:22;19.29;80.41
68257;DHT22;55069;51.568;4.656;2022-08-03T01:38:31;19.26;80.13
68257;DHT22;55069;51.568;4.656;2022-08-03T01:41:03;19.20;80.69
68257;DHT22;55069;51.568;4.656;2022-08-03T01:43:30;19.23;79.75
68257;DHT22;55069;51.568;4.656;2022-08-03T01:45:56;19.27;80.38
68257;DHT22;55069;51.568;4.656;2022-08-03T01:48:23;19.23;81.17
68257;DHT22;55069;51.568;4.656;2022-08-03T01:50:50;19.19;80.67
68257;DHT22;55069;51.568;4.656;2022-08-03T01:53:17;19.12;81.10
68257;DHT22;55069;51.568;4.656;2022-08-03T01:55:45;19.09;81.32
68257;DHT22;55069;51.568;4.656;2022-08-03T01:58:14;19.06;81.48
68257;DHT22;55069;51.568;4.656;2022-08-03T02:00:42;19.05;80.76
68257;DHT22;55069;51.568;4.656;2022-08-03T02:03:11;19.08;81.44
68257;DHT22;55069;51.568;4.656;2022-08-03T02:05:38;19.05;81.74
68257;DHT22;55069;51.568;4.656;2022-08-03T02:08:09;19.03;81.36
68257;DHT22;55069;51.568;4.656;2022-08-03T02:10:38;19.02;81.54
68257;DHT22;55069;51.568;4.656;2022-08-03T02:13:06;18.99;80.29
68257;DHT22;55069;51.568;4.656;2022-08-03T02:15:35;19.02;81.43
68257;DHT22;55069;51.568;4.656;2022-08-03T02:18:02;18.98;81.48
68257;DHT22;55069;51.568;4.656;2022-08-03T02:20:29;18.96;80.84
68257;DHT22;55069;51.568;4.656;2022-08-03T02:22:57;18.96;81.91
68257;DHT22;55069;51.568;4.656;2022-08-03T02:25:23;18.99;82.22
68257;DHT22;55069;51.568;4.656;2022-08-03T02:27:57;18.92;81.33
68257;DHT22;55069;51.568;4.656;2022-08-03T02:30:28;18.96;81.35
68257;DHT22;55069;51.568;4.656;2022-08-03T02:32:56;18.96;81.46
68257;DHT22;55069;51.568;4.656;2022-08-03T02:35:25;18.96;81.07
68257;DHT22;55069;51.568;4.656;2022-08-03T02:37:57;18.92;81.49
68257;DHT22;55069;51.568;4.656;2022-08-03T02:40:27;18.89;81.88
68257;DHT22;55069;51.568;4.656;2022-08-03T02:42:54;18.85;81.86
68257;DHT22;55069;51.568;4.656;2022-08-03T02:45:23;18.78;80.88
68257;DHT22;55069;51.568;4.656;2022-08-03T02:47:52;18.84;82.17
68257;DHT22;55069;51.568;4.656;2022-08-03T02:50:21;18.82;81.97
68257;DHT22;55069;51.568;4.656;2022-08-03T02:52:47;18.79;81.77
68257;DHT22;55069;51.568;4.656;2022-08-03T02:55:15;18.72;81.49
68257;DHT22;55069;51.568;4.656;2022-08-03T02:57:42;18.75;82.07
68257;DHT22;55069;51.568;4.656;2022-08-03T03:00:09;18.75;82.40
68257;DHT22;55069;51.568;4.656;2022-08-03T03:02:35;18.78;81.71
68257;DHT22;55069;51.568;4.656;2022-08-03T03:05:02;18.73;82.72
68257;DHT22;55069;51.568;4.656;2022-08-03T03:07:29;18.68;82.09
68257;DHT22;55069;51.568;4.656;2022-08-03T03:09:55;18.71;81.87
68257;DHT22;55069;51.568;4.656;2022-08-03T03:12:21;18.64;81.76
68257;DHT22;55069;51.568;4.656;2022-08-03T03:14:47;18.64;81.70
68257;DHT22;55069;51.568;4.656;2022-08-03T03:17:13;18.62;82.03
68257;DHT22;55069;51.568;4.656;2022-08-03T03:19:40;18.61;82.31
68257;DHT22;55069;51.568;4.656;2022-08-03T03:22:07;18.60;83.11
68257;DHT22;55069;51.568;4.656;2022-08-03T03:24:34;18.61;82.92
68257;DHT22;55069;51.568;4.656;2022-08-03T03:27:00;18.55;83.09
68257;DHT22;55069;51.568;4.656;2022-08-03T03:29:26;18.54;83.21
68257;DHT22;55069;51.568;4.656;2022-08-03T03:31:52;18.48;82.43
68257;DHT22;55069;51.568;4.656;2022-08-03T03:34:18;18.54;83.16
68257;DHT22;55069;51.568;4.656;2022-08-03T03:36:44;18.50;82.69
68257;DHT22;55069;51.568;4.656;2022-08-03T03:39:10;18.51;83.82
68257;DHT22;55069;51.568;4.656;2022-08-03T03:41:36;18.54;83.05
68257;DHT22;55069;51.568;4.656;2022-08-03T03:44:01;18.48;83.43
68257;DHT22;55069;51.568;4.656;2022-08-03T03:46:27;18.44;82.84
68257;DHT22;55069;51.568;4.656;2022-08-03T03:48:53;18.44;83.71
68257;DHT22;55069;51.568;4.656;2022-08-03T03:51:19;18.41;83.49
68257;DHT22;55069;51.568;4.656;2022-08-03T03:53:58;18.37;82.91
68257;DHT22;55069;51.568;4.656;2022-08-03T03:56:24;18.36;83.56
68257;DHT22;55069;51.568;4.656;2022-08-03T03:58:50;18.30;83.19
68257;DHT22;55069;51.568;4.656;2022-08-03T04:01:15;18.29;82.90
68257;DHT22;55069;51.568;4.656;2022-08-03T04:03:41;18.27;82.81
68257;DHT22;55069;51.568;4.656;2022-08-03T04:06:07;18.33;83.28
68257;DHT22;55069;51.568;4.656;2022-08-03T04:08:53;18.27;83.74
68257;DHT22;55069;51.568;4.656;2022-08-03T04:11:28;18.24;84.07
68257;DHT22;55069;51.568;4.656;2022-08-03T04:13:59;18.29;83.75
68257;DHT22;55069;51.568;4.656;2022-08-03T04:16:30;18.16;83.93
68257;DHT22;55069;51.568;4.656;2022-08-03T04:19:01;18.17;83.97
68257;DHT22;55069;51.568;4.656;2022-08-03T04:21:29;18.20;83.99
68257;DHT22;55069;51.568;4.656;2022-08-03T04:23:58;18.20;84.24
68257;DHT22;55069;51.568;4.656;2022-08-03T04:26:26;18.17;83.72
68257;DHT22;55069;51.568;4.656;2022-08-03T04:28:54;18.17;83.91
68257;DHT22;55069;51.568;4.656;2022-08-03T04:31:21;18.20;84.63
68257;DHT22;55069;51.568;4.656;2022-08-03T04:33:49;18.20;83.23
68257;DHT22;55069;51.568;4.656;2022-08-03T04:36:20;18.18;84.45
68257;DHT22;55069;51.568;4.656;2022-08-03T04:39:12;18.23;84.75
68257;DHT22;55069;51.568;4.656;2022-08-03T04:41:38;18.23;83.97
68257;DHT22;55069;51.568;4.656;2022-08-03T04:44:05;18.24;84.41
68257;DHT22;55069;51.568;4.656;2022-08-03T04:46:34;18.26;84.26
68257;DHT22;55069;51.568;4.656;2022-08-03T04:49:01;18.18;83.77
68257;DHT22;55069;51.568;4.656;2022-08-03T04:51:28;18.22;83.80
68257;DHT22;55069;51.568;4.656;2022-08-03T04:53:54;18.27;83.70
68257;DHT22;55069;51.568;4.656;2022-08-03T04:56:20;18.30;83.91
68257;DHT22;55069;51.568;4.656;2022-08-03T04:58:45;18.26;83.48
68257;DHT22;55069;51.568;4.656;2022-08-03T05:01:11;18.26;83.57
68257;DHT22;55069;51.568;4.656;2022-08-03T05:03:37;18.26;84.68
68257;DHT22;55069;51.568;4.656;2022-08-03T05:06:03;18.34;84.30
68257;DHT22;55069;51.568;4.656;2022-08-03T05:08:28;18.34;84.19
68257;DHT22;55069;51.568;4.656;2022-08-03T05:10:55;18.36;83.55
68257;DHT22;55069;51.568;4.656;2022-08-03T05:13:21;18.41;83.51
68257;DHT22;55069;51.568;4.656;2022-08-03T05:15:47;18.40;82.83
68257;DHT22;55069;51.568;4.656;2022-08-03T05:18:13;18.48;83.05
68257;DHT22;55069;51.568;4.656;2022-08-03T05:20:39;18.52;84.42
68257;DHT22;55069;51.568;4.656;2022-08-03T05:23:05;18.52;84.09
68257;DHT22;55069;51.568;4.656;2022-08-03T05:25:30;18.58;82.04
68257;DHT22;55069;51.568;4.656;2022-08-03T05:27:56;18.60;82.92
68257;DHT22;55069;51.568;4.656;2022-08-03T05:30:22;18.67;82.77
68257;DHT22;55069;51.568;4.656;2022-08-03T05:32:47;18.75;83.31
68257;DHT22;55069;51.568;4.656;2022-08-03T05:35:13;18.78;83.39
68257;DHT22;55069;51.568;4.656;2022-08-03T05:37:39;18.81;83.79
68257;DHT22;55069;51.568;4.656;2022-08-03T05:40:05;18.85;82.71
68257;DHT22;55069;51.568;4.656;2022-08-03T05:42:30;18.92;83.03
68257;DHT22;55069;51.568;4.656;2022-08-03T05:44:56;18.94;82.76
68257;DHT22;55069;51.568;4.656;2022-08-03T05:47:22;19.03;83.29
68257;DHT22;55069;51.568;4.656;2022-08-03T05:49:47;19.13;83.64
68257;DHT22;55069;51.568;4.656;2022-08-03T05:52:13;19.19;83.25
68257;DHT22;55069;51.568;4.656;2022-08-03T05:54:39;19.27;83.08
68257;DHT22;55069;51.568;4.656;2022-08-03T05:57:05;19.27;81.74
68257;DHT22;55069;51.568;4.656;2022-08-03T05:59:31;19.39;82.18
68257;DHT22;55069;51.568;4.656;2022-08-03T06:01:56;19.45;81.96
68257;DHT22;55069;51.568;4.656;2022-08-03T06:04:22;19.58;82.23
68257;DHT22;55069;51.568;4.656;2022-08-03T06:06:48;19.71;82.08
68257;DHT22;55069;51.568;4.656;2022-08-03T06:09:15;19.85;81.87
68257;DHT22;55069;51.568;4.656;2022-08-03T06:11:42;19.84;81.86
68257;DHT22;55069;51.568;4.656;2022-08-03T06:14:07;19.88;81.31
68257;DHT22;55069;51.568;4.656;2022-08-03T06:16:33;19.96;81.42
68257;DHT22;55069;51.568;4.656;2022-08-03T06:19:00;20.06;81.06
68257;DHT22;55069;51.568;4.656;2022-08-03T06:21:25;20.12;80.58
68257;DHT22;55069;51.568;4.656;2022-08-03T06:23:51;20.21;80.20
68257;DHT22;55069;51.568;4.656;2022-08-03T06:26:17;20.28;80.64
68257;DHT22;55069;51.568;4.656;2022-08-03T06:28:44;20.33;80.67
68257;DHT22;55069;51.568;4.656;2022-08-03T06:31:10;20.43;80.26
68257;DHT22;55069;51.568;4.656;2022-08-03T06:33:36;20.52;78.99
68257;DHT22;55069;51.568;4.656;2022-08-03T06:36:02;20.59;80.10
68257;DHT22;55069;51.568;4.656;2022-08-03T06:38:28;20.69;79.83
68257;DHT22;55069;51.568;4.656;2022-08-03T06:40:53;20.80;79.17
68257;DHT22;55069;51.568;4.656;2022-08-03T06:43:19;20.87;79.26
68257;DHT22;55069;51.568;4.656;2022-08-03T06:45:45;20.94;78.07
68257;DHT22;55069;51.568;4.656;2022-08-03T06:48:11;21.02;78.13
68257;DHT22;55069;51.568;4.656;2022-08-03T06:50:38;21.11;78.21
68257;DHT22;55069;51.568;4.656;2022-08-03T06:53:04;21.19;76.91
68257;DHT22;55069;51.568;4.656;2022-08-03T06:55:30;21.29;76.80
68257;DHT22;55069;51.568;4.656;2022-08-03T06:57:57;21.34;76.58
68257;DHT22;55069;51.568;4.656;2022-08-03T07:00:23;21.46;76.34
68257;DHT22;55069;51.568;4.656;2022-08-03T07:02:49;21.56;76.13
68257;DHT22;55069;51.568;4.656;2022-08-03T07:05:15;21.66;75.69
68257;DHT22;55069;51.568;4.656;2022-08-03T07:07:41;21.73;74.49
68257;DHT22;55069;51.568;4.656;2022-08-03T07:10:08;21.80;73.99
68257;DHT22;55069;51.568;4.656;2022-08-03T07:12:34;21.87;73.92
68257;DHT22;55069;51.568;4.656;2022-08-03T07:15:00;21.89;73.34
68257;DHT22;55069;51.568;4.656;2022-08-03T07:17:28;21.94;73.54
68257;DHT22;55069;51.568;4.656;2022-08-03T07:19:54;21.97;72.95
68257;DHT22;55069;51.568;4.656;2022-08-03T07:22:20;21.82;73.16
68257;DHT22;55069;51.568;4.656;2022-08-03T07:24:46;21.83;73.21
68257;DHT22;55069;51.568;4.656;2022-08-03T07:27:12;22.00;72.54
68257;DHT22;55069;51.568;4.656;2022-08-03T07:29:37;22.13;72.63
68257;DHT22;55069;51.568;4.656;2022-08-03T07:32:04;22.24;72.25
68257;DHT22;55069;51.568;4.656;2022-08-03T07:34:30;22.15;71.98
68257;DHT22;55069;51.568;4.656;2022-08-03T07:36:56;22.30;72.10
68257;DHT22;55069;51.568;4.656;2022-08-03T07:39:22;22.47;71.41
68257;DHT22;55069;51.568;4.656;2022-08-03T07:41:48;22.58;71.06
68257;DHT22;55069;51.568;4.656;2022-08-03T07:44:17;22.49;70.74
68257;DHT22;55069;51.568;4.656;2022-08-03T07:46:42;22.47;71.13
68257;DHT22;55069;51.568;4.656;2022-08-03T07:49:08;22.55;71.20
68257;DHT22;55069;51.568;4.656;2022-08-03T07:51:34;22.69;70.83
68257;DHT22;55069;51.568;4.656;2022-08-03T07:54:00;22.88;70.31
68257;DHT22;55069;51.568;4.656;2022-08-03T07:56:26;22.95;69.65
68257;DHT22;55069;51.568;4.656;2022-08-03T07:58:53;23.10;69.88
68257;DHT22;55069;51.568;4.656;2022-08-03T08:01:19;23.17;69.22
68257;DHT22;55069;51.568;4.656;2022-08-03T08:03:45;23.27;68.84
68257;DHT22;55069;51.568;4.656;2022-08-03T08:06:11;23.44;68.93
68257;DHT22;55069;51.568;4.656;2022-08-03T08:08:37;23.41;68.77
68257;DHT22;55069;51.568;4.656;2022-08-03T08:11:04;23.57;68.16
68257;DHT22;55069;51.568;4.656;2022-08-03T08:13:30;23.72;67.82
68257;DHT22;55069;51.568;4.656;2022-08-03T08:15:56;23.88;66.90
68257;DHT22;55069;51.568;4.656;2022-08-03T08:18:21;23.98;65.93
68257;DHT22;55069;51.568;4.656;2022-08-03T08:20:48;24.09;66.33
68257;DHT22;55069;51.568;4.656;2022-08-03T08:23:14;24.09;66.18
68257;DHT22;55069;51.568;4.656;2022-08-03T08:25:44;24.06;65.57
68257;DHT22;55069;51.568;4.656;2022-08-03T08:28:10;24.24;65.33
68257;DHT22;55069;51.568;4.656;2022-08-03T08:30:36;24.43;64.33
68257;DHT22;55069;51.568;4.656;2022-08-03T08:33:01;24.46;64.19
68257;DHT22;55069;51.568;4.656;2022-08-03T08:35:27;24.57;64.73
68257;DHT22;55069;51.568;4.656;2022-08-03T08:37:53;24.71;64.11
68257;DHT22;55069;51.568;4.656;2022-08-03T08:40:22;24.87;63.10
68257;DHT22;55069;51.568;4.656;2022-08-03T08:42:47;25.02;61.57
68257;DHT22;55069;51.568;4.656;2022-08-03T08:45:13;25.14;62.02
68257;DHT22;55069;51.568;4.656;2022-08-03T08:47:44;25.25;61.67
68257;DHT22;55069;51.568;4.656;2022-08-03T08:50:10;25.40;60.38
68257;DHT22;55069;51.568;4.656;2022-08-03T08:52:39;25.51;60.49
68257;DHT22;55069;51.568;4.656;2022-08-03T08:55:07;25.53;60.96
68257;DHT22;55069;51.568;4.656;2022-08-03T08:57:36;25.73;60.78
68257;DHT22;55069;51.568;4.656;2022-08-03T09:00:08;25.94;59.95
68257;DHT22;55069;51.568;4.656;2022-08-03T09:02:35;26.00;58.90
68257;DHT22;55069;51.568;4.656;2022-08-03T09:05:01;26.01;58.44
68257;DHT22;55069;51.568;4.656;2022-08-03T09:07:28;25.78;59.51
68257;DHT22;55069;51.568;4.656;2022-08-03T09:09:54;25.51;58.38
68257;DHT22;55069;51.568;4.656;2022-08-03T09:12:20;25.90;57.54
68257;DHT22;55069;51.568;4.656;2022-08-03T09:14:45;26.15;55.96
68257;DHT22;55069;51.568;4.656;2022-08-03T09:17:11;26.18;55.39
68257;DHT22;55069;51.568;4.656;2022-08-03T09:19:37;26.12;56.44
68257;DHT22;55069;51.568;4.656;2022-08-03T09:22:22;26.49;55.58
68257;DHT22;55069;51.568;4.656;2022-08-03T09:25:01;26.43;56.00
68257;DHT22;55069;51.568;4.656;2022-08-03T09:27:28;26.73;56.51
68257;DHT22;55069;51.568;4.656;2022-08-03T09:29:54;26.77;54.80
68257;DHT22;55069;51.568;4.656;2022-08-03T09:32:22;26.94;54.53
68257;DHT22;55069;51.568;4.656;2022-08-03T09:34:49;27.18;53.90
68257;DHT22;55069;51.568;4.656;2022-08-03T09:37:17;27.24;52.96
68257;DHT22;55069;51.568;4.656;2022-08-03T09:39:44;26.83;52.25
68257;DHT22;55069;51.568;4.656;2022-08-03T09:42:15;26.67;52.62
68257;DHT22;55069;51.568;4.656;2022-08-03T09:44:49;26.64;54.14
68257;DHT22;55069;51.568;4.656;2022-08-03T09:47:26;27.20;52.86
68257;DHT22;55069;51.568;4.656;2022-08-03T09:50:01;27.49;52.10
68257;DHT22;55069;51.568;4.656;2022-08-03T09:52:32;27.52;51.29
68257;DHT22;55069;51.568;4.656;2022-08-03T09:55:00;27.12;52.15
68257;DHT22;55069;51.568;4.656;2022-08-03T09:57:27;27.18;52.35
68257;DHT22;55069;51.568;4.656;2022-08-03T10:00:05;26.93;52.11
68257;DHT22;55069;51.568;4.656;2022-08-03T10:02:39;27.56;52.30
68257;DHT22;55069;51.568;4.656;2022-08-03T10:05:06;27.61;51.68
68257;DHT22;55069;51.568;4.656;2022-08-03T10:07:46;28.10;50.77
68257;DHT22;55069;51.568;4.656;2022-08-03T10:10:13;28.22;50.72
68257;DHT22;55069;51.568;4.656;2022-08-03T10:12:40;28.04;49.55
68257;DHT22;55069;51.568;4.656;2022-08-03T10:15:10;28.13;52.05
68257;DHT22;55069;51.568;4.656;2022-08-03T10:17:36;27.99;51.34
68257;DHT22;55069;51.568;4.656;2022-08-03T10:20:05;28.28;51.44
68257;DHT22;55069;51.568;4.656;2022-08-03T10:22:35;28.24;50.61
68257;DHT22;55069;51.568;4.656;2022-08-03T10:25:13;27.96;51.11
68257;DHT22;55069;51.568;4.656;2022-08-03T10:27:41;27.96;51.77
68257;DHT22;55069;51.568;4.656;2022-08-03T10:30:10;28.01;50.14
68257;DHT22;55069;51.568;4.656;2022-08-03T10:32:51;28.24;49.80
68257;DHT22;55069;51.568;4.656;2022-08-03T10:35:20;28.24;49.38
68257;DHT22;55069;51.568;4.656;2022-08-03T10:38:05;28.41;49.59
68257;DHT22;55069;51.568;4.656;2022-08-03T10:40:33;28.74;49.46
68257;DHT22;55069;51.568;4.656;2022-08-03T10:43:06;28.57;50.82
68257;DHT22;55069;51.568;4.656;2022-08-03T10:45:39;28.36;50.15
68257;DHT22;55069;51.568;4.656;2022-08-03T10:48:07;28.27;50.57
68257;DHT22;55069;51.568;4.656;2022-08-03T10:50:34;28.57;50.51
68257;DHT22;55069;51.568;4.656;2022-08-03T10:53:03;28.30;50.81
68257;DHT22;55069;51.568;4.656;2022-08-03T10:55:36;27.90;51.83
68257;DHT22;55069;51.568;4.656;2022-08-03T11:01:02;28.89;51.06
68257;DHT22;55069;51.568;4.656;2022-08-03T11:03:28;29.19;50.41
68257;DHT22;55069;51.568;4.656;2022-08-03T11:06:14;29.34;49.85
68257;DHT22;55069;51.568;4.656;2022-08-03T11:08:43;29.23;48.78
68257;DHT22;55069;51.568;4.656;2022-08-03T11:13:56;29.03;50.45
68257;DHT22;55069;51.568;4.656;2022-08-03T11:16:22;28.99;50.16
68257;DHT22;55069;51.568;4.656;2022-08-03T11:18:59;29.33;50.88
68257;DHT22;55069;51.568;4.656;2022-08-03T11:30:09;29.46;50.63
68257;DHT22;55069;51.568;4.656;2022-08-03T11:35:27;29.54;50.40
68257;DHT22;55069;51.568;4.656;2022-08-03T11:40:47;29.33;50.26
68257;DHT22;55069;51.568;4.656;2022-08-03T11:46:07;29.51;51.09
68257;DHT22;55069;51.568;4.656;2022-08-03T11:51:05;29.93;50.13
68257;DHT22;55069;51.568;4.656;2022-08-03T11:53:31;30.04;49.77
68257;DHT22;55069;51.568;4.656;2022-08-03T11:55:59;30.04;48.86
68257;DHT22;55069;51.568;4.656;2022-08-03T11:58:26;30.08;49.56
68257;DHT22;55069;51.568;4.656;2022-08-03T12:00:53;29.68;49.59
68257;DHT22;55069;51.568;4.656;2022-08-03T12:03:31;29.77;49.43
68257;DHT22;55069;51.568;4.656;2022-08-03T12:05:57;29.74;49.55
68257;DHT22;55069;51.568;4.656;2022-08-03T12:10:52;29.78;49.66
68257;DHT22;55069;51.568;4.656;2022-08-03T12:13:18;30.29;49.31
68257;DHT22;55069;51.568;4.656;2022-08-03T12:15:56;30.16;48.67
68257;DHT22;55069;51.568;4.656;2022-08-03T12:18:22;29.75;49.01
68257;DHT22;55069;51.568;4.656;2022-08-03T12:20:50;29.80;48.75
68257;DHT22;55069;51.568;4.656;2022-08-03T12:23:17;29.86;49.40
68257;DHT22;55069;51.568;4.656;2022-08-03T12:25:45;29.74;48.79
68257;DHT22;55069;51.568;4.656;2022-08-03T12:28:19;30.22;48.96
68257;DHT22;55069;51.568;4.656;2022-08-03T12:30:49;30.08;48.37
68257;DHT22;55069;51.568;4.656;2022-08-03T12:35:59;30.91;48.13
68257;DHT22;55069;51.568;4.656;2022-08-03T12:38:26;30.92;48.20
68257;DHT22;55069;51.568;4.656;2022-08-03T12:40:57;30.99;48.24
68257;DHT22;55069;51.568;4.656;2022-08-03T12:43:24;30.94;47.45
68257;DHT22;55069;51.568;4.656;2022-08-03T12:45:50;30.84;47.72
68257;DHT22;55069;51.568;4.656;2022-08-03T12:48:17;30.95;47.61
68257;DHT22;55069;51.568;4.656;2022-08-03T12:50:43;30.61;48.82
68257;DHT22;55069;51.568;4.656;2022-08-03T12:53:09;30.97;48.18
68257;DHT22;55069;51.568;4.656;2022-08-03T12:55:38;31.12;47.23
68257;DHT22;55069;51.568;4.656;2022-08-03T12:58:07;31.31;46.82
68257;DHT22;55069;51.568;4.656;2022-08-03T13:00:35;30.76;46.89
68257;DHT22;55069;51.568;4.656;2022-08-03T13:03:03;30.92;47.27
68257;DHT22;55069;51.568;4.656;2022-08-03T13:05:30;31.45;46.66
68257;DHT22;55069;51.568;4.656;2022-08-03T13:07:57;30.91;46.68
68257;DHT22;55069;51.568;4.656;2022-08-03T13:10:40;31.62;46.71
68257;DHT22;55069;51.568;4.656;2022-08-03T13:13:07;31.04;46.42
68257;DHT22;55069;51.568;4.656;2022-08-03T13:15:33;31.22;46.68
68257;DHT22;55069;51.568;4.656;2022-08-03T13:17:58;31.47;47.24
68257;DHT22;55069;51.568;4.656;2022-08-03T13:20:24;31.77;45.96
68257;DHT22;55069;51.568;4.656;2022-08-03T13:22:50;31.15;46.79
68257;DHT22;55069;51.568;4.656;2022-08-03T13:25:15;31.29;46.50
68257;DHT22;55069;51.568;4.656;2022-08-03T13:27:41;31.36;46.89
68257;DHT22;55069;51.568;4.656;2022-08-03T13:30:08;31.26;47.11
68257;DHT22;55069;51.568;4.656;2022-08-03T13:32:34;31.01;47.81
68257;DHT22;55069;51.568;4.656;2022-08-03T13:34:59;30.95;47.38
68257;DHT22;55069;51.568;4.656;2022-08-03T13:37:27;30.92;47.16
68257;DHT22;55069;51.568;4.656;2022-08-03T13:39:52;31.54;46.99
68257;DHT22;55069;51.568;4.656;2022-08-03T13:42:18;32.11;46.36
68257;DHT22;55069;51.568;4.656;2022-08-03T13:44:44;32.52;46.24
68257;DHT22;55069;51.568;4.656;2022-08-03T13:47:10;32.93;45.07
68257;DHT22;55069;51.568;4.656;2022-08-03T13:49:35;31.10;46.11
68257;DHT22;55069;51.568;4.656;2022-08-03T13:52:01;30.71;47.73
68257;DHT22;55069;51.568;4.656;2022-08-03T13:54:27;30.95;47.02
68257;DHT22;55069;51.568;4.656;2022-08-03T13:56:52;31.59;45.62
68257;DHT22;55069;51.568;4.656;2022-08-03T13:59:19;32.08;46.50
68257;DHT22;55069;51.568;4.656;2022-08-03T14:01:46;32.25;44.71
68257;DHT22;55069;51.568;4.656;2022-08-03T14:04:11;32.07;45.08
68257;DHT22;55069;51.568;4.656;2022-08-03T14:06:37;32.51;44.88
68257;DHT22;55069;51.568;4.656;2022-08-03T14:09:03;32.29;43.78
68257;DHT22;55069;51.568;4.656;2022-08-03T14:11:29;31.63;45.40
68257;DHT22;55069;51.568;4.656;2022-08-03T14:13:55;32.23;45.43
68257;DHT22;55069;51.568;4.656;2022-08-03T14:16:20;32.65;44.73
68257;DHT22;55069;51.568;4.656;2022-08-03T14:18:46;33.26;45.26
68257;DHT22;55069;51.568;4.656;2022-08-03T14:21:12;33.37;42.40
68257;DHT22;55069;51.568;4.656;2022-08-03T14:23:38;32.58;43.28
68257;DHT22;55069;51.568;4.656;2022-08-03T14:26:07;32.37;42.88
68257;DHT22;55069;51.568;4.656;2022-08-03T14:28:33;31.77;44.23
68257;DHT22;55069;51.568;4.656;2022-08-03T14:31:00;31.66;44.80
68257;DHT22;55069;51.568;4.656;2022-08-03T14:33:26;32.52;43.98
68257;DHT22;55069;51.568;4.656;2022-08-03T14:35:55;33.12;43.34
68257;DHT22;55069;51.568;4.656;2022-08-03T14:38:20;33.81;42.83
68257;DHT22;55069;51.568;4.656;2022-08-03T14:40:47;34.35;43.09
68257;DHT22;55069;51.568;4.656;2022-08-03T14:43:13;34.76;41.41
68257;DHT22;55069;51.568;4.656;2022-08-03T14:45:39;34.92;39.35
68257;DHT22;55069;51.568;4.656;2022-08-03T14:48:05;34.29;39.67
68257;DHT22;55069;51.568;4.656;2022-08-03T14:50:31;33.95;41.67
68257;DHT22;55069;51.568;4.656;2022-08-03T14:52:57;33.65;40.62
68257;DHT22;55069;51.568;4.656;2022-08-03T14:55:23;33.69;42.24
68257;DHT22;55069;51.568;4.656;2022-08-03T14:57:48;34.04;40.87
68257;DHT22;55069;51.568;4.656;2022-08-03T15:00:14;32.92;42.26
68257;DHT22;55069;51.568;4.656;2022-08-03T15:02:40;33.02;43.94
68257;DHT22;55069;51.568;4.656;2022-08-03T15:05:06;32.83;41.50
68257;DHT22;55069;51.568;4.656;2022-08-03T15:07:32;33.44;44.63
68257;DHT22;55069;51.568;4.656;2022-08-03T15:09:58;33.26;43.02
68257;DHT22;55069;51.568;4.656;2022-08-03T15:12:24;33.39;42.38
68257;DHT22;55069;51.568;4.656;2022-08-03T15:14:50;33.57;45.32
68257;DHT22;55069;51.568;4.656;2022-08-03T15:17:16;32.95;41.18
68257;DHT22;55069;51.568;4.656;2022-08-03T15:19:41;33.23;43.38
68257;DHT22;55069;51.568;4.656;2022-08-03T15:22:07;33.43;41.97
68257;DHT22;55069;51.568;4.656;2022-08-03T15:24:33;33.67;43.53
68257;DHT22;55069;51.568;4.656;2022-08-03T15:26:58;33.60;42.38
68257;DHT22;55069;51.568;4.656;2022-08-03T15:29:25;33.74;44.49
68257;DHT22;55069;51.568;4.656;2022-08-03T15:31:50;33.72;44.39
68257;DHT22;55069;51.568;4.656;2022-08-03T15:34:16;34.06;40.94
68257;DHT22;55069;51.568;4.656;2022-08-03T15:36:43;33.41;40.83
68257;DHT22;55069;51.568;4.656;2022-08-03T15:39:08;33.51;43.18
68257;DHT22;55069;51.568;4.656;2022-08-03T15:41:34;34.10;42.91
68257;DHT22;55069;51.568;4.656;2022-08-03T15:44:01;34.44;40.81
68257;DHT22;55069;51.568;4.656;2022-08-03T15:46:26;34.64;39.95
68257;DHT22;55069;51.568;4.656;2022-08-03T15:48:52;35.12;39.80
68257;DHT22;55069;51.568;4.656;2022-08-03T15:51:18;35.46;37.67
68257;DHT22;55069;51.568;4.656;2022-08-03T15:53:44;35.66;37.78
68257;DHT22;55069;51.568;4.656;2022-08-03T15:56:09;35.77;38.21
68257;DHT22;55069;51.568;4.656;2022-08-03T15:58:37;36.10;38.73
68257;DHT22;55069;51.568;4.656;2022-08-03T16:01:04;35.70;38.15
68257;DHT22;55069;51.568;4.656;2022-08-03T16:03:30;35.53;38.80
68257;DHT22;55069;51.568;4.656;2022-08-03T16:06:02;35.57;39.35
68257;DHT22;55069;51.568;4.656;2022-08-03T16:08:29;35.79;37.50
68257;DHT22;55069;51.568;4.656;2022-08-03T16:10:56;36.04;37.56
68257;DHT22;55069;51.568;4.656;2022-08-03T16:13:22;35.65;38.74
68257;DHT22;55069;51.568;4.656;2022-08-03T16:15:48;34.74;40.92